createdAt,value
2018-06-28T00:01:43.223Z,51.89
2018-06-28T00:04:11.136Z,52.82
2018-06-28T00:06:39.352Z,52.54
2018-06-28T00:09:08.429Z,52.95
2018-06-28T00:11:36.350Z,53.31
2018-06-28T00:14:03.976Z,52.97
2018-06-28T00:16:32.317Z,53.50
2018-06-28T00:18:59.966Z,53.20
2018-06-28T00:21:28.735Z,52.82
2018-06-28T00:23:56.369Z,53.18
2018-06-28T00:26:24.032Z,53.26
2018-06-28T00:28:52.189Z,52.91
2018-06-28T00:31:19.815Z,53.92
2018-06-28T00:33:47.439Z,53.54
2018-06-28T00:36:15.601Z,53.57
2018-06-28T00:38:43.503Z,54.09
2018-06-28T00:41:11.943Z,53.59
2018-06-28T00:43:39.593Z,53.90
2018-06-28T00:46:07.495Z,53.53
2018-06-28T00:48:35.528Z,54.40
2018-06-28T00:51:03.193Z,54.23
2018-06-28T00:53:30.812Z,54.66
2018-06-28T00:58:33.427Z,53.99
2018-06-28T01:01:01.104Z,54.63
2018-06-28T01:03:28.708Z,54.05
2018-06-28T01:05:56.632Z,54.84
2018-06-28T01:08:24.264Z,54.58
2018-06-28T01:10:51.912Z,54.51
2018-06-28T01:13:19.519Z,54.38
2018-06-28T01:15:47.451Z,54.70
2018-06-28T01:18:15.047Z,55.00
2018-06-28T01:20:42.676Z,54.93
2018-06-28T01:23:10.560Z,54.96
2018-06-28T01:25:38.179Z,54.98
2018-06-28T01:28:05.782Z,54.85
2018-06-28T01:30:33.657Z,55.40
2018-06-28T01:33:01.290Z,54.65
2018-06-28T01:35:28.931Z,55.25
2018-06-28T01:37:56.588Z,55.42
2018-06-28T01:40:24.568Z,54.93
2018-06-28T01:42:52.177Z,54.94
2018-06-28T01:45:19.867Z,55.78
2018-06-28T01:47:47.532Z,55.52
2018-06-28T01:50:16.505Z,55.36
2018-06-28T01:52:44.156Z,55.64
2018-06-28T01:55:11.808Z,55.58
2018-06-28T01:57:39.953Z,55.70
2018-06-28T02:00:07.792Z,55.65
2018-06-28T02:02:35.455Z,55.76
2018-06-28T02:05:03.559Z,55.72
2018-06-28T02:07:31.216Z,55.61
2018-06-28T02:09:58.892Z,55.70
2018-06-28T02:12:26.506Z,56.11
2018-06-28T02:14:54.475Z,56.26
2018-06-28T02:17:22.107Z,56.02
2018-06-28T02:19:49.759Z,56.02
2018-06-28T02:22:17.404Z,56.28
2018-06-28T02:24:45.468Z,56.72
2018-06-28T02:27:13.095Z,56.47
2018-06-28T02:29:40.708Z,56.00
2018-06-28T02:32:08.345Z,56.77
2018-06-28T02:34:36.483Z,56.48
2018-06-28T02:37:04.228Z,56.46
2018-06-28T02:39:31.903Z,56.53
2018-06-28T02:41:59.518Z,56.72
2018-06-28T02:44:27.531Z,56.38
2018-06-28T02:46:56.097Z,56.27
2018-06-28T02:49:23.791Z,56.72
2018-06-28T02:51:51.416Z,56.24
2018-06-28T02:54:19.520Z,56.25
2018-06-28T02:56:47.180Z,56.82
2018-06-28T02:59:14.796Z,56.72
2018-06-28T03:01:42.697Z,57.11
2018-06-28T03:04:10.319Z,57.57
2018-06-28T03:06:37.953Z,57.12
2018-06-28T03:09:07.154Z,57.25
2018-06-28T03:11:34.765Z,57.68
2018-06-28T03:14:02.392Z,57.53
2018-06-28T03:16:30.039Z,58.06
2018-06-28T03:18:57.938Z,57.70
2018-06-28T03:21:26.598Z,57.64
2018-06-28T03:23:54.191Z,58.07
2018-06-28T03:26:22.076Z,57.68
2018-06-28T03:28:49.870Z,57.71
2018-06-28T03:31:17.489Z,56.86
2018-06-28T03:33:45.119Z,56.97
2018-06-28T03:36:13.197Z,57.75
2018-06-28T03:38:40.803Z,57.18
2018-06-28T03:41:08.427Z,57.49
2018-06-28T03:43:36.068Z,58.05
2018-06-28T03:46:04.106Z,58.13
2018-06-28T03:48:31.711Z,57.76
2018-06-28T03:51:00.166Z,58.08
2018-06-28T03:53:28.092Z,58.01
2018-06-28T03:55:56.579Z,58.12
2018-06-28T03:58:24.171Z,58.15
2018-06-28T04:00:52.097Z,58.17
2018-06-28T04:03:19.744Z,58.22
2018-06-28T04:05:47.376Z,57.91
2018-06-28T04:08:15.275Z,57.28
2018-06-28T04:10:42.888Z,57.56
2018-06-28T04:13:10.713Z,57.51
2018-06-28T04:15:38.371Z,57.33
2018-06-28T04:18:06.246Z,57.81
2018-06-28T04:20:33.883Z,57.02
2018-06-28T04:23:01.524Z,57.14
2018-06-28T04:25:29.643Z,56.77
2018-06-28T04:27:57.270Z,56.39
2018-06-28T04:30:24.875Z,56.39
2018-06-28T04:32:52.757Z,55.92
2018-06-28T04:35:20.379Z,55.93
2018-06-28T04:37:47.986Z,56.04
2018-06-28T04:40:15.872Z,56.17
2018-06-28T04:42:43.489Z,55.48
2018-06-28T04:45:11.517Z,55.57
2018-06-28T04:47:39.573Z,55.67
2018-06-28T04:50:07.179Z,54.79
2018-06-28T04:52:34.794Z,54.85
2018-06-28T04:55:03.111Z,54.62
2018-06-28T04:57:30.699Z,55.13
2018-06-28T04:59:58.352Z,54.34
2018-06-28T05:02:26.256Z,54.47
2018-06-28T05:04:53.880Z,54.25
2018-06-28T05:07:21.526Z,53.68
2018-06-28T05:09:49.511Z,53.95
2018-06-28T05:12:17.166Z,53.71
2018-06-28T05:14:44.895Z,53.08
2018-06-28T05:17:12.899Z,52.76
2018-06-28T05:19:40.539Z,52.51
2018-06-28T05:22:08.140Z,52.26
2018-06-28T05:24:36.120Z,52.41
2018-06-28T05:27:04.459Z,51.74
2018-06-28T05:29:32.059Z,52.25
2018-06-28T05:31:59.960Z,52.13
2018-06-28T05:34:27.590Z,51.51
2018-06-28T05:36:55.231Z,51.18
2018-06-28T05:39:23.095Z,51.41
2018-06-28T05:41:51.215Z,51.00
2018-06-28T05:44:18.820Z,51.04
2018-06-28T05:46:48.228Z,50.74
2018-06-28T05:49:16.457Z,50.69
2018-06-28T05:51:44.060Z,50.35
2018-06-28T05:54:11.984Z,50.67
2018-06-28T05:56:39.575Z,50.52
2018-06-28T05:59:07.195Z,50.32
2018-06-28T06:01:35.192Z,51.10
2018-06-28T06:04:02.810Z,50.49
2018-06-28T06:06:30.999Z,51.04
2018-06-28T06:08:58.602Z,50.21
2018-06-28T06:11:26.208Z,51.07
2018-06-28T06:13:56.020Z,50.99
2018-06-28T06:16:24.235Z,50.02
2018-06-28T06:18:51.835Z,50.72
2018-06-28T06:21:19.768Z,50.00
2018-06-28T06:23:47.376Z,50.36
2018-06-28T06:26:14.997Z,50.46
2018-06-28T06:50:12.140Z,48.17
2018-06-28T06:52:41.666Z,48.73
2018-06-28T06:55:09.887Z,48.35
2018-06-28T06:57:38.339Z,47.71
2018-06-28T07:00:06.576Z,48.01
2018-06-28T07:02:35.299Z,47.65
2018-06-28T07:05:02.904Z,47.37
2018-06-28T07:07:30.784Z,47.32
2018-06-28T07:09:58.386Z,47.11
2018-06-28T07:12:26.010Z,46.98
2018-06-28T07:14:53.912Z,46.95
2018-06-28T07:19:55.446Z,46.30
2018-06-28T07:22:23.360Z,45.91
2018-06-28T07:24:51.960Z,45.75
2018-06-28T07:27:19.571Z,46.24
2018-06-28T07:29:47.455Z,45.22
2018-06-28T07:32:15.870Z,45.21
2018-06-28T07:34:43.455Z,45.86
2018-06-28T07:37:11.360Z,45.60
2018-06-28T07:39:39.588Z,45.58
2018-06-28T07:42:07.454Z,45.33
2018-06-28T07:44:36.235Z,44.73
2018-06-28T07:49:38.544Z,44.91
2018-06-28T07:52:07.407Z,44.76
2018-06-28T07:54:35.019Z,44.49
2018-06-28T07:57:02.684Z,44.10
2018-06-28T07:59:30.598Z,44.05
2018-06-28T08:01:58.210Z,44.42
2018-06-28T08:04:25.803Z,44.38
2018-06-28T08:06:53.713Z,43.66
2018-06-28T08:09:21.291Z,43.40
2018-06-28T08:11:49.592Z,44.07
2018-06-28T08:14:17.472Z,43.86
2018-06-28T08:16:45.073Z,43.33
2018-06-28T08:19:12.697Z,43.73
2018-06-28T08:29:51.535Z,43.45
2018-06-28T08:32:19.129Z,42.72
2018-06-28T08:34:47.063Z,43.00
2018-06-28T08:37:14.704Z,43.07
2018-06-28T08:39:45.327Z,42.08
2018-06-28T08:42:13.427Z,42.82
2018-06-28T08:44:42.321Z,42.65
2018-06-28T08:47:10.605Z,42.44
2018-06-28T08:49:44.435Z,41.70
2018-06-28T08:52:13.181Z,41.18
2018-06-28T08:54:40.784Z,41.97
2018-06-28T08:57:08.675Z,41.57
2018-06-28T08:59:37.096Z,41.18
2018-06-28T09:02:05.663Z,41.38
2018-06-28T09:04:35.478Z,41.13
2018-06-28T09:07:03.123Z,40.71
2018-06-28T09:09:31.378Z,40.26
2018-06-28T09:11:59.282Z,40.36
2018-06-28T09:14:27.566Z,40.13
2018-06-28T09:16:56.136Z,40.01
2018-06-28T09:19:24.024Z,40.73
2018-06-28T09:21:52.646Z,39.98
2018-06-28T09:24:20.262Z,40.23
2018-06-28T09:26:50.058Z,39.57
2018-06-28T09:29:17.638Z,40.03
2018-06-28T09:31:45.247Z,39.99
2018-06-28T09:34:13.825Z,39.01
2018-06-28T09:43:19.369Z,38.64
2018-06-28T09:45:47.298Z,38.52
2018-06-28T09:48:15.548Z,38.33
2018-06-28T09:50:43.171Z,38.40
2018-06-28T09:53:11.226Z,38.15
2018-06-28T09:55:39.403Z,38.89
2018-06-28T09:58:08.239Z,38.47
2018-06-28T10:00:48.243Z,38.11
2018-06-28T10:03:19.779Z,38.07
2018-06-28T10:05:49.582Z,37.18
2018-06-28T10:08:17.273Z,37.79
2018-06-28T10:10:44.889Z,37.90
2018-06-28T10:13:13.594Z,37.69
2018-06-28T10:15:42.251Z,37.19
2018-06-28T10:18:09.914Z,38.35
2018-06-28T10:20:38.429Z,37.75
2018-06-28T10:23:07.342Z,36.71
2018-06-28T10:25:36.283Z,36.95
2018-06-28T10:28:05.719Z,36.29
2018-06-28T10:33:29.898Z,35.07
2018-06-28T10:35:57.521Z,34.78
2018-06-28T10:38:25.119Z,33.06
2018-06-28T10:40:56.166Z,33.54
2018-06-28T10:43:25.923Z,32.20
2018-06-28T10:45:53.545Z,32.00
2018-06-28T10:48:24.622Z,32.29
2018-06-28T10:50:53.173Z,31.78
2018-06-28T10:53:21.204Z,32.01
2018-06-28T10:55:50.066Z,31.23
2018-06-28T10:58:19.529Z,31.98
2018-06-28T11:02:29.895Z,31.54
2018-06-28T11:10:49.775Z,31.26
2018-06-28T11:13:17.975Z,31.63
2018-06-28T11:15:45.631Z,31.24
2018-06-28T11:18:16.697Z,30.59
2018-06-28T11:20:46.626Z,30.50
2018-06-28T11:23:17.677Z,29.95
2018-06-28T11:25:45.787Z,30.12
2018-06-28T11:28:14.608Z,29.27
2018-06-28T11:35:13.447Z,29.66
2018-06-28T11:37:42.155Z,30.18
2018-06-28T11:40:10.649Z,29.77
2018-06-28T11:42:38.545Z,29.63
2018-06-28T11:45:06.175Z,28.43
2018-06-28T11:47:33.860Z,28.15
2018-06-28T11:50:01.848Z,28.73
2018-06-28T11:52:29.488Z,27.73
2018-06-28T11:57:48.277Z,27.87
2018-06-28T12:00:17.126Z,27.63
2018-06-28T12:02:45.326Z,27.63
2018-06-28T12:05:13.291Z,27.81
2018-06-28T12:07:40.925Z,27.38
2018-06-28T12:10:08.834Z,27.51
2018-06-28T12:12:36.707Z,28.22
2018-06-28T12:15:05.179Z,27.30
2018-06-28T12:29:15.660Z,27.20
2018-06-28T12:31:44.072Z,29.45
2018-06-28T12:34:12.252Z,29.86
2018-06-28T12:36:41.311Z,29.77
2018-06-28T12:39:09.768Z,30.39
2018-06-28T15:03:19.367Z,22.36
2018-06-28T15:08:29.711Z,23.48
2018-06-28T15:10:58.327Z,23.40
2018-06-28T15:13:25.946Z,23.02
2018-06-28T15:15:53.558Z,23.14
2018-06-28T15:18:22.107Z,21.55
2018-06-28T15:20:49.789Z,22.19
2018-06-28T15:23:17.715Z,22.50
2018-06-28T15:25:46.677Z,24.02
2018-06-28T15:28:15.927Z,22.99
2018-06-28T15:53:59.612Z,25.59
2018-06-28T15:56:27.291Z,25.48
2018-06-28T15:58:56.773Z,25.54
2018-06-28T16:01:26.622Z,24.36
2018-06-28T16:03:58.398Z,23.46
2018-06-28T16:06:26.647Z,23.31
2018-06-28T16:08:54.546Z,22.71
2018-06-28T16:11:22.321Z,23.86
2018-06-28T16:13:52.507Z,23.73
2018-06-28T16:18:54.855Z,25.96
2018-06-28T16:21:32.896Z,25.37
2018-06-28T16:43:38.772Z,30.43
2018-06-28T16:46:06.363Z,30.59
2018-06-28T16:48:34.001Z,30.06
2018-06-28T16:51:03.303Z,28.29
2018-06-28T16:53:37.497Z,29.13
2018-06-28T19:57:53.341Z,39.23
2018-06-28T20:11:35.115Z,39.63
2018-06-28T20:14:09.943Z,39.85
2018-06-28T20:16:42.489Z,39.91
2018-06-28T20:19:15.266Z,39.71
2018-06-28T20:21:46.729Z,39.52
2018-06-28T20:24:14.921Z,39.63
2018-06-28T20:26:49.873Z,40.39
2018-06-28T20:29:27.497Z,40.38
2018-06-28T20:35:28.849Z,40.49
2018-06-28T21:10:59.029Z,43.06
2018-06-28T21:13:26.626Z,42.31
2018-06-28T21:15:59.682Z,42.35
2018-06-28T21:18:27.663Z,42.05
2018-06-28T21:20:57.058Z,42.54
2018-06-28T22:08:25.416Z,43.70
2018-06-28T22:10:58.176Z,43.44
2018-06-28T22:16:16.474Z,43.41
2018-06-28T22:18:46.074Z,43.87
2018-06-28T22:21:13.691Z,43.68
2018-06-28T22:23:42.573Z,44.07
2018-06-28T22:26:10.948Z,44.33
2018-06-28T22:28:38.536Z,44.31
2018-06-28T22:31:06.467Z,43.70
2018-06-28T22:39:27.705Z,43.71
2018-06-28T22:41:56.570Z,43.43
2018-06-28T22:44:31.037Z,43.51
2018-06-28T22:52:46.935Z,44.18
2018-06-28T23:00:37.269Z,44.54
2018-06-28T23:03:06.299Z,44.32
2018-06-28T23:05:33.899Z,45.16
2018-06-28T23:08:01.805Z,45.07
2018-06-28T23:10:29.399Z,44.67
2018-06-28T23:32:55.741Z,45.59
2018-06-28T23:35:27.851Z,46.05
2018-06-28T23:37:59.044Z,46.14
2018-06-28T23:40:26.910Z,45.73
2018-06-28T23:42:54.503Z,46.37
2018-06-28T23:45:22.105Z,46.26
2018-06-28T23:47:50.461Z,45.47
2018-06-28T23:53:21.973Z,45.88
2018-06-28T23:56:17.716Z,46.67
